Kerepes, Hungary

1:39 PM CEST on August 05, 2015 (GMT +0200)
Kistarcsa | | Change Station
CLOSE
Current Station
Personal Weather Station
Location: Kistarcsa, PEST COUNTY
Elevation: 654 ft
Nearby Weather Stations

Elev 654 ft 47.55 °N, 19.26 °E | Updated 2 seconds ago

Scattered Clouds
Scattered Clouds
81.1 °F
Feels Like 83 °F
N
5.8
Wind Variable Wind from North
Gusts 5.8 mph

5:25 AM 8:12 PM
Waning Gibbous, 68% visible
Pressure 30.01 in
Visibility 6.2 miles
Clouds Scattered Clouds 5100 ft
Heat Index 83 °F
Dew Point 66 °F
Humidity 61%
Rainfall 0.00 in
Snow Depth Not available.
UV 7 out of 12
Pollen Not available.
Air Quality Not available.
Flu Activity Not available.
METAR LHBP 051130Z 21004KT 9999 VCTS SCT051CB 32/18 Q1016 TEMPO TSRA SCT045CB

More Conditions Fewer Conditions

Pressure 30.01 in
Visibility 6.2 miles
Clouds Scattered Clouds 5100 ft
Heat Index 83 °F
Dew Point 66 °F
Humidity 61%
Rainfall 0.00 in
Snow Depth Not available.
UV 7 out of 12
Pollen Not available.
Air Quality Not available.
Flu Activity Not available.
METAR LHBP 051130Z 21004KT 9999 VCTS SCT051CB 32/18 Q1016 TEMPO TSRA SCT045CB

More Conditions Fewer Conditions

10-Day Weather Forecast

×

Almanac

Astronomy

Aug. 05, 2015 Rise Set
Actual Time
Civil Twilight
Nautical Twilight
Astronomical Twilight
Moon
Length of Visible Light
Length of Day
Tomorrow will be .
, % of the Moon is Illuminated

Today's Extremes

Country Highs Country Lows

Community

WunderPhotos

Upload Photos

1,844,138 photos uploaded!

WunderBlogs® & News

Nearby

Air Quality

  Air Quality AQ Index Pollutant
Not available.

Snow Depth

Station Depth Elevation

Earthquake Activity

City Distance Mag. Time & Date
Minimum magnitude displayed is 2.5.

Coastal Water Temperatures

Place Temperature

Stations

Nearby Weather Stations

Station Location Temp. Windchill Dew Point Humidity Wind Precip. Elev Updated Type